Аэропорт: Витебск Восточный. Витебск

ICAO: UMII

METAR:
Информация по данной станции не доступна
METAR:
2020-10-19 14:01:00
TAF UMII 191401Z 1915/1924 26007G12MPS 9999 BKN015 TEMPO 1915/1918 VRB14MPS 2000 SHRA BKN005 BKN012CB